createdAt,value
2022-08-08T00:10:58.442Z,9388.82812
2022-08-08T00:26:01.255Z,9657.62305
2022-08-08T00:41:13.013Z,9795.8252
2022-08-08T00:56:17.211Z,9724.82227
2022-08-08T01:11:19.385Z,7987.79395
2022-08-08T01:26:24.191Z,8151.35352
2022-08-08T01:41:26.697Z,4952.43213
2022-08-08T01:56:37.226Z,2572.5769
2022-08-08T02:12:00.174Z,2270.81567
2022-08-08T02:27:03.014Z,1843.5321
2022-08-08T02:42:10.705Z,1309.74463
2022-08-08T02:57:16.987Z,773.42133
2022-08-08T03:12:36.508Z,310.63644
2022-08-08T03:28:03.652Z,69.73471
2022-08-08T03:43:16.462Z,7.60742
2022-08-08T03:58:36.418Z,1.2679
2022-08-08T04:14:04.318Z,0
2022-08-08T04:29:37.710Z,0
2022-08-08T04:44:39.937Z,0
2022-08-08T04:59:42.686Z,0
2022-08-08T05:14:45.003Z,0
2022-08-08T05:29:52.132Z,0
2022-08-08T05:44:54.682Z,0
2022-08-08T06:00:24.840Z,0
2022-08-08T06:15:31.679Z,0
2022-08-08T06:30:53.740Z,0
2022-08-08T06:45:57.286Z,0
2022-08-08T07:00:59.753Z,0
2022-08-08T07:16:04.549Z,0
2022-08-08T07:31:10.120Z,0
2022-08-08T07:46:23.568Z,0
2022-08-08T08:02:33.698Z,0
2022-08-08T08:17:49.026Z,0
2022-08-08T08:32:51.925Z,0
2022-08-08T08:47:54.882Z,0
2022-08-08T09:03:00.723Z,0
2022-08-08T09:18:03.145Z,0
2022-08-08T09:33:54.527Z,0
2022-08-08T09:49:42.067Z,0
2022-08-08T10:04:47.769Z,0
2022-08-08T10:19:57.616Z,0
2022-08-08T10:35:01.345Z,0
2022-08-08T10:50:04.633Z,0
2022-08-08T11:05:14.751Z,0
2022-08-08T11:20:18.130Z,0
2022-08-08T11:35:37.771Z,0
2022-08-08T11:50:44.746Z,1.2679
2022-08-08T12:05:54.849Z,10.14323
2022-08-08T12:20:58.804Z,82.41375
2022-08-08T12:36:02.471Z,305.56482
2022-08-08T12:51:10.897Z,736.6521
2022-08-08T13:06:14.406Z,1336.37061
2022-08-08T13:21:16.889Z,2411.55298
2022-08-08T13:36:25.722Z,3690.86792
2022-08-08T13:51:37.763Z,5052.59668
2022-08-08T14:06:43.991Z,6430.80811
2022-08-08T14:21:49.069Z,7358.91357
2022-08-08T14:36:54.898Z,8058.79639
2022-08-08T14:51:57.163Z,9368.54102
2022-08-08T15:06:59.599Z,8645.83594
2022-08-08T15:22:06.872Z,9040.1543
2022-08-08T15:37:09.208Z,9258.2334
2022-08-08T15:52:11.690Z,9577.74512
2022-08-08T16:07:13.908Z,9637.33691
2022-08-08T16:22:30.327Z,8964.08008
2022-08-08T16:37:33.443Z,9075.65527
2022-08-08T16:55:01.539Z,8753.60742
2022-08-08T17:10:27.612Z,8349.14648
2022-08-08T17:25:47.631Z,8027.09912
2022-08-08T17:40:55.461Z,7569.38574
2022-08-08T17:56:06.727Z,7232.12354
2022-08-08T18:11:11.593Z,7148.44189
2022-08-08T18:26:17.257Z,6905.00391
2022-08-08T18:41:19.764Z,6683.12109
2022-08-08T18:56:54.682Z,6549.99121
2022-08-08T19:11:56.954Z,6529.70459
2022-08-08T19:26:59.392Z,6481.52441
2022-08-08T19:42:02.474Z,6438.41553
2022-08-08T19:57:07.758Z,6504.34668
2022-08-08T20:12:10.309Z,6581.68848
2022-08-08T20:27:20.650Z,6594.36768
2022-08-08T20:42:28.152Z,6908.80762
2022-08-08T20:57:32.199Z,7150.97754
2022-08-08T21:12:35.658Z,7017.84766
2022-08-08T21:28:06.217Z,6946.84473
2022-08-08T21:43:16.852Z,6882.18164
2022-08-08T21:58:19.173Z,7282.83936
2022-08-08T22:13:27.165Z,7143.37012
2022-08-08T22:29:15.001Z,7422.30908
2022-08-08T22:45:03.575Z,7532.6167
2022-08-08T23:00:07.627Z,7583.33252
2022-08-08T23:15:11.172Z,7779.85791
2022-08-08T23:31:45.019Z,8287.01953
2022-08-08T23:49:07.547Z,8671.19434
